Time;durP1;ratioP1;P1;durP2;ratioP2;P2;SDS_P1;SDS_P2;PMS_P1;PMS_P2;Temp;Humidity;BMP_temperature;BMP_pressure;BME280_temperature;BME280_humidity;BME280_pressure;Samples;Min_cycle;Max_cycle;Signal;HPM_P1;HPM_P2
2022/08/07 00:01:25;;;;;;;3.70;0.98;;;12.80;95.10;;;;;;5068644;28;20031;-76
2022/08/07 00:03:51;;;;;;;2.78;1.10;;;12.80;95.10;;;;;;5096771;28;20090;-76
2022/08/07 00:06:17;;;;;;;2.88;1.25;;;12.80;95.10;;;;;;5080922;28;20413;-76
2022/08/07 00:08:42;;;;;;;3.33;1.33;;;12.70;95.30;;;;;;5084912;28;20385;-76
2022/08/07 00:11:08;;;;;;;2.92;1.30;;;12.70;95.50;;;;;;5081967;28;20116;-76
2022/08/07 00:13:36;;;;;;;1.92;0.90;;;12.70;95.60;;;;;;5098989;28;20032;-76
2022/08/07 00:16:05;;;;;;;2.08;1.00;;;12.70;95.60;;;;;;5082307;28;20040;-76
2022/08/07 00:18:31;;;;;;;2.88;0.88;;;12.70;95.50;;;;;;5068237;28;20040;-76
2022/08/07 00:21:00;;;;;;;4.05;1.27;;;12.70;95.50;;;;;;5084786;28;20051;-76
2022/08/07 00:23:25;;;;;;;3.22;1.33;;;12.60;95.70;;;;;;5078954;28;20063;-76
2022/08/07 00:25:51;;;;;;;2.22;0.85;;;12.70;95.50;;;;;;5066622;28;20999;-76
2022/08/07 00:28:18;;;;;;;2.70;1.25;;;12.70;95.50;;;;;;5084631;28;20504;-75
2022/08/07 00:30:43;;;;;;;2.38;1.20;;;12.60;95.40;;;;;;5083838;28;20064;-76
2022/08/07 00:33:09;;;;;;;3.40;1.40;;;12.60;95.40;;;;;;5083809;28;20070;-76
2022/08/07 00:35:35;;;;;;;2.03;1.10;;;12.60;95.40;;;;;;5081622;28;20135;-76
2022/08/07 00:38:00;;;;;;;2.10;1.00;;;12.60;95.40;;;;;;5063082;28;20151;-76
2022/08/07 00:40:27;;;;;;;3.40;0.90;;;12.50;95.40;;;;;;5100745;28;20036;-76
2022/08/07 00:42:52;;;;;;;3.13;1.40;;;12.50;95.70;;;;;;5099565;28;20032;-76
2022/08/07 00:45:20;;;;;;;2.63;1.50;;;12.40;95.70;;;;;;5084391;28;20035;-76
2022/08/07 00:47:46;;;;;;;1.73;1.10;;;12.40;95.80;;;;;;5064128;28;20032;-76
2022/08/07 00:50:12;;;;;;;2.50;1.00;;;12.40;95.80;;;;;;5077435;28;20113;-76
2022/08/07 00:52:37;;;;;;;2.75;1.08;;;12.40;95.80;;;;;;5098297;28;20485;-76
2022/08/07 00:55:04;;;;;;;1.92;1.10;;;12.40;95.70;;;;;;5081145;28;20041;-76
2022/08/07 00:57:29;;;;;;;2.05;0.98;;;12.40;95.70;;;;;;5097124;28;20051;-76
2022/08/07 00:59:55;;;;;;;3.00;1.25;;;12.30;95.60;;;;;;5085877;28;20554;-76
2022/08/07 01:02:22;;;;;;;3.45;1.33;;;12.40;95.70;;;;;;5100982;28;20032;-76
2022/08/07 01:04:48;;;;;;;2.28;1.33;;;12.30;95.70;;;;;;5087520;28;20055;-76
2022/08/07 01:07:15;;;;;;;2.13;1.00;;;12.30;95.60;;;;;;5083620;28;20600;-76
2022/08/07 01:09:41;;;;;;;2.33;1.23;;;12.30;95.60;;;;;;5096495;28;20115;-76
2022/08/07 01:12:07;;;;;;;2.17;1.10;;;12.30;95.70;;;;;;5083543;28;20036;-75
2022/08/07 01:14:33;;;;;;;1.23;0.70;;;12.30;95.70;;;;;;5067546;28;20043;-75
2022/08/07 01:16:59;;;;;;;3.83;1.23;;;12.20;95.70;;;;;;5083257;28;20067;-76
2022/08/07 01:19:26;;;;;;;2.35;1.00;;;12.20;95.70;;;;;;5081115;28;20142;-76
2022/08/07 01:21:53;;;;;;;2.33;0.93;;;12.20;95.80;;;;;;5085302;28;20390;-76
2022/08/07 01:24:20;;;;;;;1.80;0.80;;;12.20;95.70;;;;;;5081255;28;20071;-76
2022/08/07 01:26:46;;;;;;;2.00;0.85;;;12.20;95.80;;;;;;5085865;28;20798;-76
2022/08/07 01:29:12;;;;;;;2.83;1.02;;;12.10;95.80;;;;;;5062458;28;20033;-76
2022/08/07 01:31:38;;;;;;;1.25;0.60;;;12.20;95.80;;;;;;5083346;28;20481;-76
2022/08/07 01:34:07;;;;;;;2.20;0.85;;;12.10;95.70;;;;;;5101029;28;20043;-76
2022/08/07 01:36:33;;;;;;;1.83;0.80;;;12.10;95.80;;;;;;5082027;28;20036;-76
2022/08/07 01:38:59;;;;;;;1.92;0.98;;;12.10;95.90;;;;;;5081538;28;20606;-76
2022/08/07 01:41:25;;;;;;;2.85;0.80;;;12.10;95.90;;;;;;5083128;28;20036;-76
2022/08/07 01:43:51;;;;;;;1.05;0.43;;;12.00;95.90;;;;;;5080254;28;20040;-76
2022/08/07 01:46:18;;;;;;;2.70;0.90;;;12.00;95.90;;;;;;5084320;28;20028;-76
2022/08/07 01:48:46;;;;;;;2.65;1.20;;;12.00;96.00;;;;;;5083243;28;20039;-76
2022/08/07 01:51:17;;;;;;;2.10;0.90;;;12.00;96.10;;;;;;5084933;28;20031;-76
2022/08/07 01:53:46;;;;;;;2.78;1.08;;;11.90;96.10;;;;;;5098083;28;20356;-76
2022/08/07 01:56:21;;;;;;;1.75;0.68;;;11.90;96.20;;;;;;5084135;28;20074;-76
2022/08/07 01:58:51;;;;;;;2.27;1.03;;;11.90;96.30;;;;;;5080054;28;20035;-76
2022/08/07 02:01:26;;;;;;;2.45;1.08;;;11.90;96.40;;;;;;5084874;28;20743;-76
2022/08/07 02:04:00;;;;;;;1.92;0.98;;;11.90;96.50;;;;;;5094572;27;20076;-76
2022/08/07 02:06:29;;;;;;;1.85;0.73;;;11.90;96.50;;;;;;5098748;28;20481;-76
2022/08/07 02:08:55;;;;;;;2.65;1.05;;;11.90;96.50;;;;;;5079919;28;20075;-76
2022/08/07 02:11:21;;;;;;;1.98;0.90;;;11.80;96.70;;;;;;5081524;28;20027;-76
2022/08/07 02:13:48;;;;;;;3.75;1.17;;;11.80;96.40;;;;;;5084527;28;20539;-76
2022/08/07 02:16:17;;;;;;;1.52;0.77;;;11.90;96.40;;;;;;5080048;28;20416;-76
2022/08/07 02:18:43;;;;;;;2.10;1.02;;;11.90;96.50;;;;;;5081984;28;20451;-76
2022/08/07 02:21:09;;;;;;;2.45;1.05;;;11.80;96.40;;;;;;5082883;28;20066;-76
2022/08/07 02:23:38;;;;;;;2.17;1.05;;;11.90;96.40;;;;;;5081790;28;20777;-76
2022/08/07 02:26:05;;;;;;;1.52;0.82;;;11.80;96.30;;;;;;5081768;28;20073;-76
2022/08/07 02:28:33;;;;;;;1.95;1.08;;;11.80;96.30;;;;;;5096372;28;20064;-75
2022/08/07 02:31:01;;;;;;;2.33;1.05;;;11.80;96.20;;;;;;5096982;28;20721;-76
2022/08/07 02:33:28;;;;;;;1.73;1.13;;;11.80;96.30;;;;;;5083326;28;20093;-76
2022/08/07 02:35:55;;;;;;;3.47;1.10;;;11.80;96.30;;;;;;5084808;28;20071;-75
2022/08/07 02:38:25;;;;;;;2.22;0.70;;;11.80;96.20;;;;;;5080990;28;20071;-76
2022/08/07 02:40:52;;;;;;;1.52;0.75;;;11.70;96.40;;;;;;5077853;28;20046;-76
2022/08/07 02:43:17;;;;;;;1.98;0.93;;;11.70;96.40;;;;;;5084670;28;20028;-75
2022/08/07 02:45:46;;;;;;;1.85;1.00;;;11.60;96.40;;;;;;5083547;28;20085;-76
2022/08/07 02:48:12;;;;;;;2.00;0.82;;;11.60;96.60;;;;;;5062206;28;20541;-76
2022/08/07 02:50:41;;;;;;;3.30;1.13;;;11.60;96.60;;;;;;5079550;28;20115;-76
2022/08/07 02:53:22;;;;;;;2.58;0.80;;;11.60;96.60;;;;;;5084292;28;20036;-76
2022/08/07 02:55:50;;;;;;;3.33;1.30;;;11.60;97.00;;;;;;5098167;28;20817;-76
2022/08/07 02:58:21;;;;;;;1.40;0.80;;;11.60;96.70;;;;;;5076552;28;20072;-76
2022/08/07 03:00:50;;;;;;;6.95;1.20;;;11.60;96.70;;;;;;5098458;28;20032;-75
2022/08/07 03:03:17;;;;;;;2.53;0.93;;;11.50;96.60;;;;;;5099384;28;20039;-75
2022/08/07 03:05:44;;;;;;;2.33;0.90;;;11.50;96.60;;;;;;5075699;28;20443;-76
2022/08/07 03:08:11;;;;;;;1.92;0.77;;;11.50;96.70;;;;;;5081574;28;20050;-75
2022/08/07 03:10:38;;;;;;;2.65;0.98;;;11.50;96.80;;;;;;5083586;28;20507;-75
2022/08/07 03:13:05;;;;;;;3.03;0.95;;;11.50;96.90;;;;;;5080344;28;20125;-76
2022/08/07 03:15:31;;;;;;;1.92;0.95;;;11.40;96.90;;;;;;5080203;28;20047;-75
2022/08/07 03:17:57;;;;;;;3.03;1.08;;;11.40;97.00;;;;;;5079340;28;20036;-75
2022/08/07 03:20:24;;;;;;;1.80;0.85;;;11.40;96.90;;;;;;5080756;28;20063;-75
2022/08/07 03:22:50;;;;;;;1.45;0.60;;;11.50;96.90;;;;;;5080844;28;20047;-75
2022/08/07 03:25:17;;;;;;;3.13;1.20;;;11.40;96.90;;;;;;5081885;28;20047;-76
2022/08/07 03:27:44;;;;;;;2.42;0.90;;;11.40;96.90;;;;;;5098382;28;20036;-75
2022/08/07 03:30:11;;;;;;;1.13;0.60;;;11.40;96.90;;;;;;5097527;28;20036;-75
2022/08/07 03:32:39;;;;;;;2.38;1.20;;;11.40;96.90;;;;;;5081832;28;20046;-76
2022/08/07 03:35:12;;;;;;;1.73;0.85;;;11.30;97.00;;;;;;5080968;28;20036;-76
2022/08/07 03:37:39;;;;;;;1.20;0.70;;;11.30;97.10;;;;;;5079809;28;20044;-76
2022/08/07 03:40:07;;;;;;;2.22;0.98;;;11.30;97.10;;;;;;5064256;28;20481;-76
2022/08/07 03:42:34;;;;;;;2.22;1.02;;;11.30;97.00;;;;;;5085568;28;20046;-75
2022/08/07 03:45:01;;;;;;;1.48;0.70;;;11.30;97.10;;;;;;5083697;28;20068;-75
2022/08/07 03:47:28;;;;;;;2.10;0.80;;;11.20;97.10;;;;;;5084029;28;20392;-75
2022/08/07 03:49:55;;;;;;;1.77;0.95;;;11.20;97.20;;;;;;5083301;28;20047;-75
2022/08/07 03:52:25;;;;;;;1.77;0.85;;;11.20;97.30;;;;;;5083169;28;20042;-76
2022/08/07 03:54:51;;;;;;;6.00;1.30;;;11.30;97.20;;;;;;5078206;28;20040;-75
2022/08/07 03:57:17;;;;;;;8.77;1.40;;;11.20;97.20;;;;;;5086850;28;20039;-76
2022/08/07 03:59:43;;;;;;;3.75;1.45;;;11.20;97.20;;;;;;5084878;28;20546;-75
2022/08/07 04:02:09;;;;;;;2.67;1.00;;;11.20;97.20;;;;;;5081026;28;20674;-75
2022/08/07 04:04:35;;;;;;;9.02;1.13;;;11.20;97.10;;;;;;5080609;28;20047;-75
2022/08/07 04:07:00;;;;;;;1.27;0.80;;;11.20;97.10;;;;;;5098509;28;20032;-76
2022/08/07 04:09:28;;;;;;;3.00;1.10;;;11.10;97.10;;;;;;5087589;28;20024;-75
2022/08/07 04:11:54;;;;;;;2.92;1.30;;;11.10;97.10;;;;;;5083837;28;20955;-75
2022/08/07 04:14:20;;;;;;;1.55;0.82;;;11.10;97.10;;;;;;5081068;28;20056;-75
2022/08/07 04:16:47;;;;;;;4.75;1.30;;;11.00;97.30;;;;;;5083123;28;20429;-75
2022/08/07 04:19:14;;;;;;;2.72;1.10;;;11.00;97.50;;;;;;5083488;28;20032;-75
2022/08/07 04:21:40;;;;;;;2.67;1.25;;;11.10;97.60;;;;;;5076796;28;20062;-75
2022/08/07 04:24:10;;;;;;;2.47;0.80;;;11.00;97.30;;;;;;5066947;28;20048;-75
2022/08/07 04:26:38;;;;;;;3.45;1.50;;;11.10;97.20;;;;;;5079399;28;20538;-75
2022/08/07 04:29:06;;;;;;;2.85;0.90;;;11.00;97.20;;;;;;5089428;28;20125;-75
2022/08/07 04:31:33;;;;;;;2.95;1.35;;;11.10;97.20;;;;;;5083362;28;20090;-76
2022/08/07 04:33:59;;;;;;;2.30;1.00;;;11.00;97.20;;;;;;5098360;28;20118;-76
2022/08/07 04:36:24;;;;;;;2.03;1.05;;;11.10;97.20;;;;;;5082890;28;20036;-75
2022/08/07 04:38:50;;;;;;;2.15;0.82;;;11.00;97.20;;;;;;5069817;28;20047;-75
2022/08/07 04:41:16;;;;;;;3.40;1.50;;;11.00;97.30;;;;;;5088814;28;20043;-75
2022/08/07 04:43:43;;;;;;;3.15;1.63;;;11.10;97.30;;;;;;5063089;28;20135;-75
2022/08/07 04:46:31;;;;;;;1.98;0.90;;;11.10;97.40;;;;;;5082230;28;20036;-75
2022/08/07 04:49:03;;;;;;;3.25;1.25;;;11.10;97.80;;;;;;5068619;28;20047;-75
2022/08/07 04:52:11;;;;;;;2.53;1.33;;;11.20;97.50;;;;;;5097773;28;20046;-76
2022/08/07 04:55:18;;;;;;;3.63;1.35;;;11.20;97.90;;;;;;5084731;28;20051;-76
2022/08/07 04:57:56;;;;;;;3.22;1.33;;;11.20;98.40;;;;;;5043579;28;20461;-76
2022/08/07 05:00:36;;;;;;;2.33;1.05;;;11.30;97.50;;;;;;5040362;28;20095;-76
2022/08/07 05:03:28;;;;;;;2.65;1.20;;;11.30;97.60;;;;;;5060430;28;20681;-75
2022/08/07 05:06:06;;;;;;;1.77;1.10;;;11.30;98.00;;;;;;5084615;28;20051;-75
2022/08/07 05:08:42;;;;;;;5.85;2.00;;;11.30;98.20;;;;;;5084502;28;20504;-76
2022/08/07 05:11:22;;;;;;;2.70;1.25;;;11.40;97.80;;;;;;5082483;28;20040;-76
2022/08/07 05:14:01;;;;;;;2.38;1.10;;;11.40;97.80;;;;;;5099345;28;20051;-76
2022/08/07 05:16:30;;;;;;;2.97;1.42;;;11.40;98.10;;;;;;5097920;28;20044;-76
2022/08/07 05:19:02;;;;;;;3.30;1.73;;;11.50;97.70;;;;;;5084561;28;20035;-75
2022/08/07 05:21:29;;;;;;;2.75;1.10;;;11.50;97.80;;;;;;5082620;28;20091;-75
2022/08/07 05:24:03;;;;;;;2.72;1.27;;;11.50;97.80;;;;;;5097318;28;20077;-76
2022/08/07 05:26:32;;;;;;;3.63;1.48;;;11.50;98.10;;;;;;5100052;28;20047;-76
2022/08/07 05:29:01;;;;;;;3.08;1.38;;;11.50;98.10;;;;;;5084338;28;20043;-75
2022/08/07 05:31:32;;;;;;;3.45;1.63;;;11.60;98.20;;;;;;5083527;28;20034;-76
2022/08/07 05:33:59;;;;;;;1.67;1.10;;;11.60;98.20;;;;;;5082031;28;20654;-76
2022/08/07 05:36:27;;;;;;;3.05;1.70;;;11.70;98.30;;;;;;5084262;28;20067;-75
2022/08/07 05:38:54;;;;;;;3.13;1.33;;;11.70;98.40;;;;;;5081038;28;20085;-76
2022/08/07 05:41:20;;;;;;;3.85;1.75;;;11.70;98.50;;;;;;5098633;27;20071;-76
2022/08/07 05:43:50;;;;;;;3.00;1.23;;;11.80;98.70;;;;;;5068322;28;20032;-75
2022/08/07 05:46:18;;;;;;;2.95;1.45;;;11.90;99.00;;;;;;5084092;28;20617;-76
2022/08/07 05:48:44;;;;;;;3.22;1.58;;;12.00;99.00;;;;;;5082495;28;20089;-76
2022/08/07 05:51:11;;;;;;;4.05;1.55;;;12.20;98.70;;;;;;5096956;28;20484;-75
2022/08/07 05:53:37;;;;;;;3.47;1.63;;;12.30;98.80;;;;;;5095662;28;20093;-75
2022/08/07 05:56:05;;;;;;;3.92;1.58;;;12.60;98.60;;;;;;5082349;28;20040;-76
2022/08/07 05:58:31;;;;;;;3.53;1.67;;;12.70;98.30;;;;;;5063588;28;20044;-76
2022/08/07 06:00:59;;;;;;;3.63;1.95;;;12.70;98.40;;;;;;5067753;28;20052;-76
2022/08/07 06:03:27;;;;;;;3.08;1.33;;;12.60;98.60;;;;;;5080090;28;20511;-76
2022/08/07 06:05:53;;;;;;;3.53;1.45;;;12.60;99.00;;;;;;5082908;28;20040;-76
2022/08/07 06:08:19;;;;;;;3.65;1.83;;;12.60;99.20;;;;;;5079533;28;20477;-76
2022/08/07 06:10:45;;;;;;;3.35;1.63;;;12.70;99.50;;;;;;5080391;28;20501;-76
2022/08/07 06:13:11;;;;;;;6.30;2.70;;;12.70;99.60;;;;;;5087072;28;20493;-76
2022/08/07 06:15:39;;;;;;;2.88;1.70;;;12.80;99.80;;;;;;5097042;28;20078;-76
2022/08/07 06:18:06;;;;;;;4.60;1.95;;;12.80;99.90;;;;;;5082669;28;20047;-76
2022/08/07 06:20:35;;;;;;;3.95;1.98;;;12.90;99.90;;;;;;5083836;28;20056;-76
2022/08/07 06:23:03;;;;;;;4.25;2.30;;;12.90;99.90;;;;;;5079393;28;20128;-76
2022/08/07 06:25:29;;;;;;;4.50;1.90;;;12.90;99.90;;;;;;5082799;28;20036;-76
2022/08/07 06:28:05;;;;;;;5.13;2.25;;;13.00;99.90;;;;;;5098905;28;20153;-76
2022/08/07 06:30:31;;;;;;;6.32;2.10;;;13.10;99.90;;;;;;5083461;28;20075;-75
2022/08/07 06:32:58;;;;;;;6.10;2.63;;;13.20;99.90;;;;;;5096678;28;20080;-76
2022/08/07 06:35:23;;;;;;;5.13;2.70;;;13.40;99.90;;;;;;5079503;28;20495;-76
2022/08/07 06:37:49;;;;;;;8.15;2.67;;;14.10;99.90;;;;;;5083736;28;20035;-73
2022/08/07 06:40:15;;;;;;;6.97;3.28;;;15.30;99.80;;;;;;5097407;28;20055;-75
2022/08/07 06:42:42;;;;;;;7.85;2.97;;;16.60;97.00;;;;;;5080239;28;20081;-75
2022/08/07 06:45:14;;;;;;;5.78;2.45;;;17.60;94.50;;;;;;5082521;28;20032;-75
2022/08/07 06:47:40;;;;;;;5.95;2.67;;;17.80;94.20;;;;;;5076258;28;20066;-75
2022/08/07 06:50:07;;;;;;;3.55;2.25;;;17.60;94.60;;;;;;5083072;28;20375;-76
2022/08/07 06:52:36;;;;;;;5.15;2.22;;;17.30;95.40;;;;;;5077467;28;20036;-76
2022/08/07 06:55:13;;;;;;;4.82;2.17;;;17.10;96.20;;;;;;5097762;28;20051;-76
2022/08/07 06:57:39;;;;;;;4.80;2.88;;;16.90;97.00;;;;;;5078119;28;20046;-76
2022/08/07 07:00:05;;;;;;;5.88;2.70;;;16.70;97.50;;;;;;5071830;28;20028;-75
2022/08/07 07:02:33;;;;;;;4.78;2.35;;;16.60;98.00;;;;;;5099411;28;20032;-76
2022/08/07 07:04:59;;;;;;;4.60;1.95;;;16.60;98.30;;;;;;5080906;28;20036;-76
2022/08/07 07:07:24;;;;;;;4.25;2.05;;;16.40;98.20;;;;;;5097115;28;20475;-76
2022/08/07 07:09:51;;;;;;;4.82;2.42;;;16.40;98.20;;;;;;5073205;28;20040;-76
2022/08/07 07:12:34;;;;;;;3.83;2.10;;;16.40;98.30;;;;;;5082894;28;20040;-75
2022/08/07 07:15:24;;;;;;;3.85;1.83;;;16.30;98.40;;;;;;5080350;28;20047;-76
2022/08/07 07:18:09;;;;;;;3.85;2.13;;;16.20;98.20;;;;;;5081572;28;20497;-76
2022/08/07 07:20:55;;;;;;;3.72;1.83;;;16.20;98.10;;;;;;5080826;28;20055;-75
2022/08/07 07:23:21;;;;;;;3.70;1.67;;;16.20;97.80;;;;;;5096960;28;20563;-75
2022/08/07 07:25:51;;;;;;;3.92;2.28;;;16.20;97.50;;;;;;5084974;28;20493;-75
2022/08/07 07:28:28;;;;;;;5.05;1.42;;;16.20;97.60;;;;;;5086378;28;20092;-75
2022/08/07 07:31:09;;;;;;;3.45;1.60;;;16.20;97.70;;;;;;5079983;28;20024;-75
2022/08/07 07:33:37;;;;;;;2.70;1.17;;;16.20;97.40;;;;;;5084918;28;20048;-75
2022/08/07 07:36:03;;;;;;;2.10;1.20;;;16.20;97.40;;;;;;5085743;28;20152;-75
2022/08/07 07:38:31;;;;;;;3.70;1.58;;;16.20;97.20;;;;;;5080350;28;20040;-76
2022/08/07 07:41:02;;;;;;;2.00;1.00;;;16.20;97.10;;;;;;5085493;28;20501;-76
2022/08/07 07:43:30;;;;;;;1.75;1.00;;;16.20;96.80;;;;;;5099608;28;20138;-76
2022/08/07 07:45:56;;;;;;;2.13;1.02;;;16.30;96.70;;;;;;5079158;28;20401;-75
2022/08/07 07:48:24;;;;;;;1.90;0.90;;;16.30;97.00;;;;;;5075395;28;20036;-76
2022/08/07 07:50:53;;;;;;;1.75;0.85;;;16.40;96.70;;;;;;5084330;28;20036;-76
2022/08/07 07:53:21;;;;;;;1.52;0.80;;;16.40;96.40;;;;;;5100182;28;20035;-76
2022/08/07 07:55:47;;;;;;;2.20;1.02;;;16.30;95.80;;;;;;5083269;28;20489;-76
2022/08/07 07:58:14;;;;;;;2.40;1.23;;;16.40;95.80;;;;;;5078688;28;20545;-75
2022/08/07 08:00:43;;;;;;;2.10;0.82;;;16.40;95.60;;;;;;5079441;28;20097;-75
2022/08/07 08:03:12;;;;;;;2.00;1.20;;;16.40;95.50;;;;;;5098287;27;20450;-76
2022/08/07 08:05:42;;;;;;;2.30;1.08;;;16.40;95.50;;;;;;5063919;28;20413;-76
2022/08/07 08:08:09;;;;;;;2.55;1.00;;;16.50;95.10;;;;;;5081747;28;20036;-76
2022/08/07 08:10:36;;;;;;;2.20;0.90;;;16.50;94.90;;;;;;5082968;28;20055;-76
2022/08/07 08:13:04;;;;;;;2.15;1.10;;;16.50;94.90;;;;;;5085803;28;20039;-76
2022/08/07 08:15:34;;;;;;;1.92;1.05;;;16.60;94.80;;;;;;5099839;28;20510;-76
2022/08/07 08:18:01;;;;;;;2.90;0.70;;;16.60;94.40;;;;;;5067266;28;20339;-76
2022/08/07 08:20:31;;;;;;;2.05;1.05;;;16.60;94.20;;;;;;5081691;28;20131;-76
2022/08/07 08:28:38;;;;;;;1.10;0.70;;;16.70;94.20;;;;;;5083004;28;20080;-76
2022/08/07 08:31:06;;;;;;;0.75;0.50;;;16.80;93.90;;;;;;5079119;28;20044;-76
2022/08/07 08:33:33;;;;;;;1.80;0.85;;;16.80;93.70;;;;;;5077748;28;20396;-76
2022/08/07 08:36:01;;;;;;;3.50;0.55;;;16.80;93.30;;;;;;5080173;28;20261;-76
2022/08/07 08:38:32;;;;;;;1.38;0.65;;;16.70;93.40;;;;;;5097953;27;20043;-75
2022/08/07 08:41:07;;;;;;;2.20;0.68;;;16.70;93.60;;;;;;5076725;28;20028;-76
2022/08/07 08:43:34;;;;;;;1.45;0.80;;;16.70;93.10;;;;;;5080446;28;20150;-75
2022/08/07 08:46:23;;;;;;;1.45;0.88;;;16.70;93.00;;;;;;5101058;28;20042;-75
2022/08/07 08:49:18;;;;;;;1.67;0.75;;;16.70;92.10;;;;;;5081875;28;20162;-72
2022/08/07 08:52:00;;;;;;;1.92;0.75;;;16.80;92.40;;;;;;5083283;28;20074;-77
2022/08/07 08:54:33;;;;;;;1.55;0.80;;;16.90;92.50;;;;;;5084125;28;20249;-77
2022/08/07 08:57:05;;;;;;;2.33;1.08;;;16.80;92.50;;;;;;5095676;28;20449;-78
2022/08/07 08:59:36;;;;;;;2.42;1.02;;;16.80;92.50;;;;;;5079992;28;21335;-77
2022/08/07 09:02:56;;;;;;;2.20;1.27;;;16.90;92.60;;;;;;5065405;28;20437;-77
2022/08/07 09:05:40;;;;;;;2.22;0.90;;;17.00;92.90;;;;;;5009443;28;20040;-78
2022/08/07 09:08:18;;;;;;;1.17;0.65;;;17.20;92.40;;;;;;5054802;28;20097;-77
2022/08/07 09:10:56;;;;;;;1.50;0.90;;;17.20;92.50;;;;;;5098889;28;20164;-77
2022/08/07 09:13:47;;;;;;;2.05;0.93;;;17.20;92.70;;;;;;5099614;28;20043;-77
2022/08/07 09:16:25;;;;;;;2.05;0.80;;;17.40;92.60;;;;;;5075486;28;20040;-78
2022/08/07 09:18:54;;;;;;;1.23;0.70;;;17.50;92.20;;;;;;5056005;28;20511;-78
2022/08/07 09:21:38;;;;;;;2.58;0.88;;;17.80;91.80;;;;;;5080848;28;20358;-78
2022/08/07 09:24:15;;;;;;;1.50;0.80;;;17.80;90.50;;;;;;5088856;27;20439;-77
2022/08/07 09:27:10;;;;;;;1.95;0.70;;;17.80;90.80;;;;;;5081027;28;20040;-78
2022/08/07 09:29:48;;;;;;;1.10;0.60;;;17.80;90.20;;;;;;5079326;28;20052;-78
2022/08/07 09:32:24;;;;;;;1.63;0.73;;;17.80;90.00;;;;;;5066130;28;20060;-78
2022/08/07 09:35:12;;;;;;;1.85;1.05;;;17.70;90.40;;;;;;5081738;28;20117;-78
2022/08/07 09:37:43;;;;;;;1.38;0.80;;;17.70;89.20;;;;;;5084593;28;20122;-78
2022/08/07 09:40:28;;;;;;;2.50;0.80;;;17.70;90.40;;;;;;5095974;28;20123;-77
2022/08/07 09:42:59;;;;;;;1.60;0.75;;;17.80;90.90;;;;;;5070918;28;20123;-77
2022/08/07 09:46:05;;;;;;;1.55;0.75;;;18.00;91.20;;;;;;5083590;28;20047;-73
2022/08/07 09:48:46;;;;;;;1.27;0.68;;;18.10;90.90;;;;;;5086966;28;20036;-77
2022/08/07 09:51:45;;;;;;;1.48;0.63;;;18.20;90.40;;;;;;5060442;28;20039;-77
2022/08/07 09:54:23;;;;;;;2.40;0.55;;;18.30;87.30;;;;;;5080834;28;20378;-77
2022/08/07 09:57:10;;;;;;;3.85;0.60;;;18.50;86.20;;;;;;5066543;28;20074;-77
2022/08/07 10:00:01;;;;;;;1.35;0.60;;;18.50;83.20;;;;;;5076077;28;20501;-77
2022/08/07 10:02:32;;;;;;;1.50;0.52;;;18.50;82.30;;;;;;5063090;28;20112;-77
2022/08/07 10:05:07;;;;;;;0.98;0.40;;;18.50;85.90;;;;;;5095006;28;20040;-77
2022/08/07 10:08:03;;;;;;;1.23;0.65;;;18.50;84.90;;;;;;5078628;28;20373;-77
2022/08/07 10:10:55;;;;;;;1.50;0.57;;;18.40;84.40;;;;;;5066221;28;20035;-77
2022/08/07 10:14:01;;;;;;;0.90;0.60;;;18.50;84.90;;;;;;5081646;28;20131;-77
2022/08/07 10:17:05;;;;;;;1.65;0.70;;;18.60;81.90;;;;;;5064826;28;20039;-77
2022/08/07 10:19:55;;;;;;;1.85;0.80;;;18.60;83.50;;;;;;5086230;28;20087;-77
2022/08/07 10:22:50;;;;;;;1.48;0.68;;;18.70;84.50;;;;;;5075145;28;20040;-76
2022/08/07 10:25:26;;;;;;;0.85;0.50;;;18.70;82.80;;;;;;5023359;28;20139;-76
2022/08/07 10:28:12;;;;;;;0.82;0.35;;;18.60;82.70;;;;;;5092584;28;20035;-76
2022/08/07 10:30:50;;;;;;;1.23;0.50;;;18.50;83.60;;;;;;5063928;28;20557;-76
2022/08/07 10:33:34;;;;;;;1.98;0.60;;;18.50;82.40;;;;;;5097733;28;20035;-76
2022/08/07 10:36:34;;;;;;;1.48;0.63;;;18.50;80.70;;;;;;5087248;28;20051;-76
2022/08/07 10:39:10;;;;;;;1.40;0.75;;;18.60;81.30;;;;;;5089858;28;20378;-77
2022/08/07 10:41:39;;;;;;;;;;;18.60;82.80;;;;;;5086584;28;20036;-76
2022/08/07 10:44:46;;;;;;;2.03;0.63;;;18.70;77.90;;;;;;5079767;28;20190;-75
2022/08/07 10:47:23;;;;;;;0.65;0.43;;;18.70;79.00;;;;;;5096394;28;20126;-76
2022/08/07 10:49:59;;;;;;;0.73;0.47;;;18.70;80.60;;;;;;5087199;28;20505;-76
2022/08/07 10:52:34;;;;;;;1.45;0.70;;;18.60;79.40;;;;;;5083184;28;20559;-75
2022/08/07 10:55:21;;;;;;;1.60;0.55;;;18.70;79.90;;;;;;5069652;28;20420;-75
2022/08/07 10:57:56;;;;;;;1.02;0.50;;;18.80;78.50;;;;;;5089791;28;20039;-72
2022/08/07 11:00:26;;;;;;;0.82;0.30;;;18.90;76.70;;;;;;5077519;28;20056;-74
2022/08/07 11:03:05;;;;;;;1.20;0.38;;;19.00;78.50;;;;;;5087929;28;20031;-75
2022/08/07 11:05:51;;;;;;;1.27;0.40;;;19.00;76.30;;;;;;5081348;28;20099;-75
2022/08/07 11:08:38;;;;;;;0.82;0.52;;;19.20;73.60;;;;;;5076358;28;20060;-75
2022/08/07 11:11:11;;;;;;;1.05;0.60;;;19.30;73.60;;;;;;5080893;28;20481;-75
2022/08/07 11:13:41;;;;;;;0.38;0.30;;;19.30;75.90;;;;;;5064096;28;20122;-75
2022/08/07 11:16:17;;;;;;;1.58;0.60;;;19.30;75.50;;;;;;5078050;28;20043;-74
2022/08/07 11:18:57;;;;;;;2.25;0.45;;;19.40;75.40;;;;;;5075167;28;20047;-75
2022/08/07 11:21:45;;;;;;;1.58;0.73;;;19.50;74.50;;;;;;5086051;28;20063;-75
2022/08/07 11:24:27;;;;;;;1.13;0.60;;;19.50;73.70;;;;;;5097661;28;20642;-75
2022/08/07 11:27:00;;;;;;;1.45;0.70;;;19.60;72.70;;;;;;5104477;28;20047;-75
2022/08/07 11:29:37;;;;;;;0.50;0.30;;;19.60;74.90;;;;;;5087254;28;20040;-75
2022/08/07 11:32:16;;;;;;;1.25;0.68;;;19.50;73.70;;;;;;5074983;28;20047;-75
2022/08/07 11:34:55;;;;;;;1.40;0.60;;;19.50;74.30;;;;;;5100074;28;20051;-75
2022/08/07 11:37:57;;;;;;;2.55;0.80;;;19.50;70.30;;;;;;5103810;28;20062;-75
2022/08/07 11:40:38;;;;;;;0.50;0.40;;;19.50;70.00;;;;;;5103951;28;20131;-75
2022/08/07 11:43:23;;;;;;;0.98;0.40;;;19.50;72.50;;;;;;5081599;28;20767;-75
2022/08/07 11:46:21;;;;;;;1.13;0.70;;;19.40;72.90;;;;;;5077576;28;20675;-75
2022/08/07 11:49:21;;;;;;;1.27;0.70;;;19.40;69.90;;;;;;5101759;28;20477;-75
2022/08/07 11:52:05;;;;;;;0.90;0.47;;;19.40;72.20;;;;;;5104036;28;20040;-75
2022/08/07 11:54:44;;;;;;;1.23;0.50;;;19.40;72.80;;;;;;5084758;28;20032;-75
2022/08/07 11:57:32;;;;;;;1.38;0.65;;;19.50;73.70;;;;;;5087197;28;20148;-75
2022/08/07 12:00:34;;;;;;;2.20;0.70;;;19.60;72.70;;;;;;5102047;28;20039;-75
2022/08/07 12:03:09;;;;;;;0.50;0.30;;;19.80;69.00;;;;;;5086058;28;20417;-74
2022/08/07 12:05:53;;;;;;;1.08;0.43;;;19.80;68.90;;;;;;5088861;28;20044;-75
2022/08/07 12:08:36;;;;;;;2.25;0.52;;;19.80;70.00;;;;;;5090414;28;20090;-75
2022/08/07 12:11:20;;;;;;;0.82;0.52;;;19.90;69.80;;;;;;5107569;28;20089;-75
2022/08/07 12:13:47;;;;;;;0.90;0.57;;;20.00;69.60;;;;;;5106492;28;20036;-75
2022/08/07 12:16:25;;;;;;;1.55;0.40;;;20.00;68.90;;;;;;5104588;28;20044;-75
2022/08/07 12:19:16;;;;;;;1.42;0.60;;;20.00;68.70;;;;;;5090361;28;20186;-75
2022/08/07 12:22:02;;;;;;;0.95;0.52;;;20.00;68.30;;;;;;5090467;28;20177;-75
2022/08/07 12:24:38;;;;;;;1.13;0.70;;;20.10;68.70;;;;;;5086356;28;20454;-75
2022/08/07 12:27:14;;;;;;;0.82;0.40;;;20.10;67.80;;;;;;5090316;28;20044;-75
2022/08/07 12:29:56;;;;;;;1.35;0.65;;;20.20;68.80;;;;;;5104282;28;20038;-75
2022/08/07 12:32:33;;;;;;;2.55;0.60;;;20.20;66.30;;;;;;5075708;28;20036;-75
2022/08/07 12:35:03;;;;;;;1.75;0.60;;;20.20;68.10;;;;;;5096250;28;20094;-74
2022/08/07 12:37:30;;;;;;;1.40;0.60;;;20.20;67.80;;;;;;5089596;28;20083;-75
2022/08/07 12:39:57;;;;;;;1.27;0.50;;;20.10;68.00;;;;;;5090143;28;20056;-75
2022/08/07 12:42:26;;;;;;;1.30;0.68;;;20.10;66.90;;;;;;5106918;28;20386;-75
2022/08/07 12:44:53;;;;;;;1.42;0.50;;;20.10;66.60;;;;;;5103981;28;20044;-75
2022/08/07 12:47:45;;;;;;;0.90;0.60;;;20.10;67.00;;;;;;5088450;28;20070;-75
2022/08/07 12:50:29;;;;;;;1.30;0.60;;;20.20;63.90;;;;;;5106128;28;20039;-75
2022/08/07 12:53:10;;;;;;;1.10;0.40;;;20.30;62.90;;;;;;5083361;28;20040;-75
2022/08/07 12:55:49;;;;;;;0.77;0.38;;;20.30;62.90;;;;;;5106953;28;20080;-75
2022/08/07 12:58:18;;;;;;;2.10;0.77;;;20.40;64.10;;;;;;5087797;28;20414;-74
2022/08/07 13:01:05;;;;;;;0.80;0.40;;;20.40;65.20;;;;;;5104898;28;20072;-75
2022/08/07 13:03:53;;;;;;;0.98;0.55;;;20.40;64.30;;;;;;5089625;28;20040;-75
2022/08/07 13:06:37;;;;;;;1.38;0.55;;;20.30;63.10;;;;;;5088488;28;20101;-75
2022/08/07 13:09:30;;;;;;;0.57;0.35;;;20.20;64.60;;;;;;5085683;28;20124;-75
2022/08/07 13:12:11;;;;;;;2.85;0.60;;;20.20;63.60;;;;;;5086243;28;20037;-74
2022/08/07 13:14:56;;;;;;;1.00;0.57;;;20.20;63.80;;;;;;5085032;28;20060;-74
2022/08/07 13:17:40;;;;;;;1.50;0.52;;;20.30;62.80;;;;;;5087371;28;20051;-75
2022/08/07 13:20:27;;;;;;;0.60;0.38;;;20.40;63.90;;;;;;5104038;28;20136;-75
2022/08/07 13:23:05;;;;;;;0.82;0.45;;;20.50;63.30;;;;;;5104445;28;20032;-74
2022/08/07 13:25:38;;;;;;;0.88;0.47;;;20.50;62.80;;;;;;5089206;28;20165;-75